sensor_id;sensor_type;location;lat;lon;timestamp;P1;durP1;ratioP1;P2;durP2;ratioP2
69754;SDS011;57023;52.218;5.158;2022-11-20T00:01:35;24.55;;;11.65;;
69754;SDS011;57023;52.218;5.158;2022-11-20T00:04:00;25.88;;;12.30;;
69754;SDS011;57023;52.218;5.158;2022-11-20T00:06:26;26.60;;;12.70;;
69754;SDS011;57023;52.218;5.158;2022-11-20T00:08:53;24.10;;;12.50;;
69754;SDS011;57023;52.218;5.158;2022-11-20T00:11:20;24.60;;;12.07;;
69754;SDS011;57023;52.218;5.158;2022-11-20T00:13:47;24.80;;;11.73;;
69754;SDS011;57023;52.218;5.158;2022-11-20T00:18:41;28.00;;;13.00;;
69754;SDS011;57023;52.218;5.158;2022-11-20T00:21:11;24.35;;;12.75;;
69754;SDS011;57023;52.218;5.158;2022-11-20T00:23:37;28.20;;;13.13;;
69754;SDS011;57023;52.218;5.158;2022-11-20T00:26:03;25.35;;;12.73;;
69754;SDS011;57023;52.218;5.158;2022-11-20T00:28:32;22.73;;;11.98;;
69754;SDS011;57023;52.218;5.158;2022-11-20T00:31:01;22.63;;;11.80;;
69754;SDS011;57023;52.218;5.158;2022-11-20T00:33:27;24.30;;;12.00;;
69754;SDS011;57023;52.218;5.158;2022-11-20T00:35:53;23.45;;;12.50;;
69754;SDS011;57023;52.218;5.158;2022-11-20T00:38:18;24.98;;;12.43;;
69754;SDS011;57023;52.218;5.158;2022-11-20T00:40:43;22.95;;;11.82;;
69754;SDS011;57023;52.218;5.158;2022-11-20T00:43:09;24.70;;;11.88;;
69754;SDS011;57023;52.218;5.158;2022-11-20T00:45:34;23.80;;;11.70;;
69754;SDS011;57023;52.218;5.158;2022-11-20T00:47:59;23.30;;;11.35;;
69754;SDS011;57023;52.218;5.158;2022-11-20T00:50:25;22.58;;;11.68;;
69754;SDS011;57023;52.218;5.158;2022-11-20T00:52:50;21.38;;;11.68;;
69754;SDS011;57023;52.218;5.158;2022-11-20T00:55:15;23.95;;;12.20;;
69754;SDS011;57023;52.218;5.158;2022-11-20T00:57:40;23.60;;;11.70;;
69754;SDS011;57023;52.218;5.158;2022-11-20T01:00:06;25.15;;;12.57;;
69754;SDS011;57023;52.218;5.158;2022-11-20T01:02:31;26.67;;;12.35;;
69754;SDS011;57023;52.218;5.158;2022-11-20T01:04:57;24.92;;;12.13;;
69754;SDS011;57023;52.218;5.158;2022-11-20T01:07:23;22.48;;;11.85;;
69754;SDS011;57023;52.218;5.158;2022-11-20T01:12:15;23.43;;;11.73;;
69754;SDS011;57023;52.218;5.158;2022-11-20T01:14:41;24.65;;;11.65;;
69754;SDS011;57023;52.218;5.158;2022-11-20T01:17:07;23.98;;;11.63;;
69754;SDS011;57023;52.218;5.158;2022-11-20T01:19:32;23.70;;;11.57;;
69754;SDS011;57023;52.218;5.158;2022-11-20T01:21:57;23.48;;;11.85;;
69754;SDS011;57023;52.218;5.158;2022-11-20T01:24:23;25.17;;;12.52;;
69754;SDS011;57023;52.218;5.158;2022-11-20T01:26:49;26.13;;;12.20;;
69754;SDS011;57023;52.218;5.158;2022-11-20T01:29:20;27.02;;;13.07;;
69754;SDS011;57023;52.218;5.158;2022-11-20T01:31:49;25.02;;;11.93;;
69754;SDS011;57023;52.218;5.158;2022-11-20T01:34:16;27.92;;;12.43;;
69754;SDS011;57023;52.218;5.158;2022-11-20T01:36:43;25.05;;;11.90;;
69754;SDS011;57023;52.218;5.158;2022-11-20T01:39:21;24.88;;;11.93;;
69754;SDS011;57023;52.218;5.158;2022-11-20T01:41:50;24.65;;;11.73;;
69754;SDS011;57023;52.218;5.158;2022-11-20T01:47:28;22.48;;;10.90;;
69754;SDS011;57023;52.218;5.158;2022-11-20T01:50:18;27.02;;;12.20;;
69754;SDS011;57023;52.218;5.158;2022-11-20T01:52:55;27.95;;;12.27;;
69754;SDS011;57023;52.218;5.158;2022-11-20T01:55:24;25.73;;;12.23;;
69754;SDS011;57023;52.218;5.158;2022-11-20T01:57:51;24.23;;;11.43;;
69754;SDS011;57023;52.218;5.158;2022-11-20T02:00:17;30.10;;;12.90;;
69754;SDS011;57023;52.218;5.158;2022-11-20T02:02:47;22.77;;;11.05;;
69754;SDS011;57023;52.218;5.158;2022-11-20T02:08:00;22.20;;;11.52;;
69754;SDS011;57023;52.218;5.158;2022-11-20T02:10:28;21.80;;;11.50;;
69754;SDS011;57023;52.218;5.158;2022-11-20T02:12:54;24.90;;;11.95;;
69754;SDS011;57023;52.218;5.158;2022-11-20T02:15:38;21.67;;;11.68;;
69754;SDS011;57023;52.218;5.158;2022-11-20T02:18:04;22.83;;;11.13;;
69754;SDS011;57023;52.218;5.158;2022-11-20T02:20:30;23.90;;;11.37;;
69754;SDS011;57023;52.218;5.158;2022-11-20T02:22:57;23.42;;;11.05;;
69754;SDS011;57023;52.218;5.158;2022-11-20T02:25:25;23.17;;;11.43;;
69754;SDS011;57023;52.218;5.158;2022-11-20T02:27:52;26.42;;;12.18;;
69754;SDS011;57023;52.218;5.158;2022-11-20T02:30:18;23.53;;;11.60;;
69754;SDS011;57023;52.218;5.158;2022-11-20T02:32:44;24.30;;;11.77;;
69754;SDS011;57023;52.218;5.158;2022-11-20T02:37:44;21.00;;;11.07;;
69754;SDS011;57023;52.218;5.158;2022-11-20T02:40:10;25.20;;;11.35;;
69754;SDS011;57023;52.218;5.158;2022-11-20T02:42:36;21.50;;;11.02;;
69754;SDS011;57023;52.218;5.158;2022-11-20T02:45:02;22.50;;;11.13;;
69754;SDS011;57023;52.218;5.158;2022-11-20T02:47:28;23.52;;;11.23;;
69754;SDS011;57023;52.218;5.158;2022-11-20T02:49:54;22.27;;;11.65;;
69754;SDS011;57023;52.218;5.158;2022-11-20T02:52:19;21.00;;;10.50;;
69754;SDS011;57023;52.218;5.158;2022-11-20T02:54:44;22.98;;;11.80;;
69754;SDS011;57023;52.218;5.158;2022-11-20T02:57:10;21.90;;;10.95;;
69754;SDS011;57023;52.218;5.158;2022-11-20T02:59:35;21.40;;;10.63;;
69754;SDS011;57023;52.218;5.158;2022-11-20T03:02:00;23.05;;;11.35;;
69754;SDS011;57023;52.218;5.158;2022-11-20T03:04:27;24.42;;;11.40;;
69754;SDS011;57023;52.218;5.158;2022-11-20T03:06:52;25.38;;;11.45;;
69754;SDS011;57023;52.218;5.158;2022-11-20T03:09:18;24.25;;;12.15;;
69754;SDS011;57023;52.218;5.158;2022-11-20T03:11:43;24.63;;;11.60;;
69754;SDS011;57023;52.218;5.158;2022-11-20T03:14:08;24.70;;;11.70;;
69754;SDS011;57023;52.218;5.158;2022-11-20T03:16:34;24.48;;;11.48;;
69754;SDS011;57023;52.218;5.158;2022-11-20T03:18:59;24.88;;;10.95;;
69754;SDS011;57023;52.218;5.158;2022-11-20T03:21:24;25.73;;;12.00;;
69754;SDS011;57023;52.218;5.158;2022-11-20T03:23:50;24.58;;;11.40;;
69754;SDS011;57023;52.218;5.158;2022-11-20T03:26:20;23.70;;;11.35;;
69754;SDS011;57023;52.218;5.158;2022-11-20T03:28:51;23.13;;;11.32;;
69754;SDS011;57023;52.218;5.158;2022-11-20T03:31:21;23.35;;;10.35;;
69754;SDS011;57023;52.218;5.158;2022-11-20T03:36:13;21.90;;;10.27;;
69754;SDS011;57023;52.218;5.158;2022-11-20T03:38:40;22.60;;;11.48;;
69754;SDS011;57023;52.218;5.158;2022-11-20T03:41:07;24.08;;;11.63;;
69754;SDS011;57023;52.218;5.158;2022-11-20T03:43:34;22.15;;;11.23;;
69754;SDS011;57023;52.218;5.158;2022-11-20T03:45:59;25.05;;;11.32;;
69754;SDS011;57023;52.218;5.158;2022-11-20T03:48:25;22.25;;;11.45;;
69754;SDS011;57023;52.218;5.158;2022-11-20T03:50:51;24.63;;;11.73;;
69754;SDS011;57023;52.218;5.158;2022-11-20T03:53:17;24.48;;;11.52;;
69754;SDS011;57023;52.218;5.158;2022-11-20T03:55:43;27.50;;;12.48;;
69754;SDS011;57023;52.218;5.158;2022-11-20T03:58:08;22.52;;;11.68;;
69754;SDS011;57023;52.218;5.158;2022-11-20T04:00:34;28.08;;;12.32;;
69754;SDS011;57023;52.218;5.158;2022-11-20T04:03:00;21.85;;;11.10;;
69754;SDS011;57023;52.218;5.158;2022-11-20T04:05:26;22.45;;;11.75;;
69754;SDS011;57023;52.218;5.158;2022-11-20T04:07:51;24.60;;;11.85;;
69754;SDS011;57023;52.218;5.158;2022-11-20T04:10:17;24.05;;;11.63;;
69754;SDS011;57023;52.218;5.158;2022-11-20T04:12:42;23.17;;;11.73;;
69754;SDS011;57023;52.218;5.158;2022-11-20T04:15:08;25.95;;;11.82;;
69754;SDS011;57023;52.218;5.158;2022-11-20T04:17:33;23.85;;;11.90;;
69754;SDS011;57023;52.218;5.158;2022-11-20T04:19:59;25.23;;;11.95;;
69754;SDS011;57023;52.218;5.158;2022-11-20T04:22:24;25.10;;;12.00;;
69754;SDS011;57023;52.218;5.158;2022-11-20T04:24:49;24.42;;;11.63;;
69754;SDS011;57023;52.218;5.158;2022-11-20T04:27:15;24.95;;;11.80;;
69754;SDS011;57023;52.218;5.158;2022-11-20T04:29:40;23.88;;;11.73;;
69754;SDS011;57023;52.218;5.158;2022-11-20T04:32:05;26.63;;;11.68;;
69754;SDS011;57023;52.218;5.158;2022-11-20T04:34:31;26.85;;;12.55;;
69754;SDS011;57023;52.218;5.158;2022-11-20T04:36:56;21.20;;;10.93;;
69754;SDS011;57023;52.218;5.158;2022-11-20T04:39:21;24.30;;;11.63;;
69754;SDS011;57023;52.218;5.158;2022-11-20T04:41:46;23.65;;;11.57;;
69754;SDS011;57023;52.218;5.158;2022-11-20T04:44:12;22.75;;;11.30;;
69754;SDS011;57023;52.218;5.158;2022-11-20T04:46:38;22.75;;;11.15;;
69754;SDS011;57023;52.218;5.158;2022-11-20T04:49:05;24.40;;;11.60;;
69754;SDS011;57023;52.218;5.158;2022-11-20T04:51:31;23.70;;;12.07;;
69754;SDS011;57023;52.218;5.158;2022-11-20T04:53:56;23.50;;;11.02;;
69754;SDS011;57023;52.218;5.158;2022-11-20T04:56:21;25.75;;;12.15;;
69754;SDS011;57023;52.218;5.158;2022-11-20T04:58:47;26.15;;;11.48;;
69754;SDS011;57023;52.218;5.158;2022-11-20T05:01:16;22.13;;;11.65;;
69754;SDS011;57023;52.218;5.158;2022-11-20T05:03:46;22.23;;;11.45;;
69754;SDS011;57023;52.218;5.158;2022-11-20T05:06:13;26.23;;;11.48;;
69754;SDS011;57023;52.218;5.158;2022-11-20T05:11:15;25.98;;;11.18;;
69754;SDS011;57023;52.218;5.158;2022-11-20T05:13:41;26.58;;;12.23;;
69754;SDS011;57023;52.218;5.158;2022-11-20T05:16:25;22.95;;;11.27;;
69754;SDS011;57023;52.218;5.158;2022-11-20T05:18:51;26.40;;;12.27;;
69754;SDS011;57023;52.218;5.158;2022-11-20T05:21:17;25.52;;;12.02;;
69754;SDS011;57023;52.218;5.158;2022-11-20T05:23:42;23.20;;;11.93;;
69754;SDS011;57023;52.218;5.158;2022-11-20T05:26:12;26.45;;;11.93;;
69754;SDS011;57023;52.218;5.158;2022-11-20T05:28:39;24.13;;;11.60;;
69754;SDS011;57023;52.218;5.158;2022-11-20T05:31:08;27.70;;;12.75;;
69754;SDS011;57023;52.218;5.158;2022-11-20T05:33:35;25.15;;;12.27;;
69754;SDS011;57023;52.218;5.158;2022-11-20T05:36:01;27.92;;;12.70;;
69754;SDS011;57023;52.218;5.158;2022-11-20T05:38:27;27.85;;;12.73;;
69754;SDS011;57023;52.218;5.158;2022-11-20T05:40:53;26.33;;;12.60;;
69754;SDS011;57023;52.218;5.158;2022-11-20T05:43:18;26.35;;;12.05;;
69754;SDS011;57023;52.218;5.158;2022-11-20T05:45:51;24.67;;;12.15;;
69754;SDS011;57023;52.218;5.158;2022-11-20T05:48:17;22.55;;;11.90;;
69754;SDS011;57023;52.218;5.158;2022-11-20T05:50:43;27.05;;;12.68;;
69754;SDS011;57023;52.218;5.158;2022-11-20T05:53:08;26.23;;;11.90;;
69754;SDS011;57023;52.218;5.158;2022-11-20T05:55:33;25.10;;;12.48;;
69754;SDS011;57023;52.218;5.158;2022-11-20T05:57:58;23.90;;;12.43;;
69754;SDS011;57023;52.218;5.158;2022-11-20T06:00:24;26.40;;;12.77;;
69754;SDS011;57023;52.218;5.158;2022-11-20T06:02:49;26.98;;;12.35;;
69754;SDS011;57023;52.218;5.158;2022-11-20T06:05:15;25.58;;;12.23;;
69754;SDS011;57023;52.218;5.158;2022-11-20T06:07:41;24.50;;;12.05;;
69754;SDS011;57023;52.218;5.158;2022-11-20T06:10:06;23.88;;;12.40;;
69754;SDS011;57023;52.218;5.158;2022-11-20T06:12:32;25.65;;;12.48;;
69754;SDS011;57023;52.218;5.158;2022-11-20T06:14:57;27.05;;;12.60;;
69754;SDS011;57023;52.218;5.158;2022-11-20T06:17:23;27.17;;;12.70;;
69754;SDS011;57023;52.218;5.158;2022-11-20T06:19:48;24.60;;;11.93;;
69754;SDS011;57023;52.218;5.158;2022-11-20T06:22:14;25.88;;;12.18;;
69754;SDS011;57023;52.218;5.158;2022-11-20T06:24:39;24.45;;;12.25;;
69754;SDS011;57023;52.218;5.158;2022-11-20T06:27:04;25.17;;;12.38;;
69754;SDS011;57023;52.218;5.158;2022-11-20T06:29:29;24.95;;;12.55;;
69754;SDS011;57023;52.218;5.158;2022-11-20T06:31:55;27.88;;;12.63;;
69754;SDS011;57023;52.218;5.158;2022-11-20T06:34:20;24.20;;;12.40;;
69754;SDS011;57023;52.218;5.158;2022-11-20T06:36:45;25.25;;;12.90;;
69754;SDS011;57023;52.218;5.158;2022-11-20T06:39:11;26.45;;;12.43;;
69754;SDS011;57023;52.218;5.158;2022-11-20T06:41:36;24.40;;;12.75;;
69754;SDS011;57023;52.218;5.158;2022-11-20T06:44:03;27.48;;;13.68;;
69754;SDS011;57023;52.218;5.158;2022-11-20T06:46:29;28.70;;;13.68;;
69754;SDS011;57023;52.218;5.158;2022-11-20T06:48:54;27.52;;;13.65;;
69754;SDS011;57023;52.218;5.158;2022-11-20T06:51:20;24.33;;;12.93;;
69754;SDS011;57023;52.218;5.158;2022-11-20T06:53:46;25.90;;;12.48;;
69754;SDS011;57023;52.218;5.158;2022-11-20T06:56:11;26.17;;;12.60;;
69754;SDS011;57023;52.218;5.158;2022-11-20T06:58:37;24.70;;;12.80;;
69754;SDS011;57023;52.218;5.158;2022-11-20T07:01:03;25.92;;;13.32;;
69754;SDS011;57023;52.218;5.158;2022-11-20T07:03:30;29.67;;;13.43;;
69754;SDS011;57023;52.218;5.158;2022-11-20T07:05:55;24.83;;;12.85;;
69754;SDS011;57023;52.218;5.158;2022-11-20T07:08:21;24.42;;;12.80;;
69754;SDS011;57023;52.218;5.158;2022-11-20T07:10:47;27.48;;;13.13;;
69754;SDS011;57023;52.218;5.158;2022-11-20T07:13:12;27.30;;;13.40;;
69754;SDS011;57023;52.218;5.158;2022-11-20T07:15:37;25.35;;;13.05;;
69754;SDS011;57023;52.218;5.158;2022-11-20T07:18:02;28.20;;;13.38;;
69754;SDS011;57023;52.218;5.158;2022-11-20T07:20:28;28.65;;;14.40;;
69754;SDS011;57023;52.218;5.158;2022-11-20T07:22:56;26.52;;;13.52;;
69754;SDS011;57023;52.218;5.158;2022-11-20T07:25:22;27.85;;;13.65;;
69754;SDS011;57023;52.218;5.158;2022-11-20T07:27:48;29.80;;;14.82;;
69754;SDS011;57023;52.218;5.158;2022-11-20T07:30:14;29.38;;;13.98;;
69754;SDS011;57023;52.218;5.158;2022-11-20T07:32:40;29.63;;;14.80;;
69754;SDS011;57023;52.218;5.158;2022-11-20T07:35:06;30.50;;;13.90;;
69754;SDS011;57023;52.218;5.158;2022-11-20T07:37:33;28.40;;;14.20;;
69754;SDS011;57023;52.218;5.158;2022-11-20T07:39:59;29.02;;;14.15;;
69754;SDS011;57023;52.218;5.158;2022-11-20T07:42:24;26.95;;;13.13;;
69754;SDS011;57023;52.218;5.158;2022-11-20T07:44:50;28.05;;;13.95;;
69754;SDS011;57023;52.218;5.158;2022-11-20T07:47:15;30.38;;;15.10;;
69754;SDS011;57023;52.218;5.158;2022-11-20T07:49:41;31.85;;;14.25;;
69754;SDS011;57023;52.218;5.158;2022-11-20T07:52:06;29.40;;;15.27;;
69754;SDS011;57023;52.218;5.158;2022-11-20T07:54:32;28.40;;;14.32;;
69754;SDS011;57023;52.218;5.158;2022-11-20T07:56:57;29.55;;;14.05;;
69754;SDS011;57023;52.218;5.158;2022-11-20T07:59:23;35.80;;;16.75;;
69754;SDS011;57023;52.218;5.158;2022-11-20T08:01:48;40.92;;;17.98;;
69754;SDS011;57023;52.218;5.158;2022-11-20T08:04:13;38.17;;;18.95;;
69754;SDS011;57023;52.218;5.158;2022-11-20T08:06:41;40.53;;;18.73;;
69754;SDS011;57023;52.218;5.158;2022-11-20T08:09:06;36.00;;;17.65;;
69754;SDS011;57023;52.218;5.158;2022-11-20T08:11:31;44.15;;;19.73;;
69754;SDS011;57023;52.218;5.158;2022-11-20T08:14:15;37.55;;;17.92;;
69754;SDS011;57023;52.218;5.158;2022-11-20T08:16:41;41.75;;;18.67;;
69754;SDS011;57023;52.218;5.158;2022-11-20T08:19:08;31.95;;;14.80;;
69754;SDS011;57023;52.218;5.158;2022-11-20T08:21:34;35.75;;;16.48;;
69754;SDS011;57023;52.218;5.158;2022-11-20T08:23:59;28.70;;;14.90;;
69754;SDS011;57023;52.218;5.158;2022-11-20T08:26:25;26.33;;;14.63;;
69754;SDS011;57023;52.218;5.158;2022-11-20T08:28:54;32.30;;;16.42;;
69754;SDS011;57023;52.218;5.158;2022-11-20T08:31:20;31.17;;;15.48;;
69754;SDS011;57023;52.218;5.158;2022-11-20T08:33:45;29.30;;;16.75;;
69754;SDS011;57023;52.218;5.158;2022-11-20T08:36:10;32.40;;;15.57;;
69754;SDS011;57023;52.218;5.158;2022-11-20T08:38:36;29.73;;;15.98;;
69754;SDS011;57023;52.218;5.158;2022-11-20T08:41:02;28.55;;;15.73;;
69754;SDS011;57023;52.218;5.158;2022-11-20T08:43:47;30.17;;;15.50;;
69754;SDS011;57023;52.218;5.158;2022-11-20T08:46:13;29.10;;;14.65;;
69754;SDS011;57023;52.218;5.158;2022-11-20T08:48:39;33.72;;;16.05;;
69754;SDS011;57023;52.218;5.158;2022-11-20T08:51:04;30.90;;;16.45;;
69754;SDS011;57023;52.218;5.158;2022-11-20T08:53:29;32.08;;;16.17;;
69754;SDS011;57023;52.218;5.158;2022-11-20T08:55:56;29.50;;;16.00;;
69754;SDS011;57023;52.218;5.158;2022-11-20T08:58:21;37.17;;;16.90;;
69754;SDS011;57023;52.218;5.158;2022-11-20T09:00:47;30.33;;;14.10;;
69754;SDS011;57023;52.218;5.158;2022-11-20T09:03:13;31.10;;;15.32;;
69754;SDS011;57023;52.218;5.158;2022-11-20T09:05:38;35.85;;;18.08;;
69754;SDS011;57023;52.218;5.158;2022-11-20T09:08:04;35.38;;;18.42;;
69754;SDS011;57023;52.218;5.158;2022-11-20T09:10:29;30.33;;;15.93;;
69754;SDS011;57023;52.218;5.158;2022-11-20T09:12:57;28.73;;;14.63;;
69754;SDS011;57023;52.218;5.158;2022-11-20T09:15:32;30.98;;;15.70;;
69754;SDS011;57023;52.218;5.158;2022-11-20T09:17:59;30.30;;;14.88;;
69754;SDS011;57023;52.218;5.158;2022-11-20T09:20:26;29.08;;;15.73;;
69754;SDS011;57023;52.218;5.158;2022-11-20T09:22:53;27.52;;;15.45;;
69754;SDS011;57023;52.218;5.158;2022-11-20T09:25:18;30.70;;;16.48;;
69754;SDS011;57023;52.218;5.158;2022-11-20T09:27:44;32.10;;;16.75;;
69754;SDS011;57023;52.218;5.158;2022-11-20T09:30:11;29.85;;;16.27;;
69754;SDS011;57023;52.218;5.158;2022-11-20T09:32:38;28.77;;;15.50;;
69754;SDS011;57023;52.218;5.158;2022-11-20T09:35:03;27.52;;;15.02;;
69754;SDS011;57023;52.218;5.158;2022-11-20T09:37:29;30.25;;;16.40;;
69754;SDS011;57023;52.218;5.158;2022-11-20T09:39:54;29.70;;;15.82;;
69754;SDS011;57023;52.218;5.158;2022-11-20T09:42:23;30.05;;;16.35;;
69754;SDS011;57023;52.218;5.158;2022-11-20T09:48:20;29.60;;;15.23;;
69754;SDS011;57023;52.218;5.158;2022-11-20T09:56:26;27.92;;;14.65;;
69754;SDS011;57023;52.218;5.158;2022-11-20T09:58:57;31.52;;;16.75;;
69754;SDS011;57023;52.218;5.158;2022-11-20T10:01:30;31.33;;;15.70;;
69754;SDS011;57023;52.218;5.158;2022-11-20T10:04:15;31.02;;;15.20;;
69754;SDS011;57023;52.218;5.158;2022-11-20T10:06:44;31.52;;;15.98;;
69754;SDS011;57023;52.218;5.158;2022-11-20T10:09:35;30.02;;;14.60;;
69754;SDS011;57023;52.218;5.158;2022-11-20T10:12:05;31.38;;;15.93;;
69754;SDS011;57023;52.218;5.158;2022-11-20T10:25:39;30.00;;;15.60;;
69754;SDS011;57023;52.218;5.158;2022-11-20T10:28:20;27.90;;;13.80;;
69754;SDS011;57023;52.218;5.158;2022-11-20T10:30:59;31.75;;;17.33;;
69754;SDS011;57023;52.218;5.158;2022-11-20T10:33:26;33.15;;;15.68;;
69754;SDS011;57023;52.218;5.158;2022-11-20T10:36:03;31.10;;;16.35;;
69754;SDS011;57023;52.218;5.158;2022-11-20T10:38:37;32.30;;;16.90;;
69754;SDS011;57023;52.218;5.158;2022-11-20T10:41:04;31.98;;;16.55;;
69754;SDS011;57023;52.218;5.158;2022-11-20T10:44:02;32.25;;;16.10;;
69754;SDS011;57023;52.218;5.158;2022-11-20T10:46:45;31.17;;;16.77;;
69754;SDS011;57023;52.218;5.158;2022-11-20T10:49:14;36.20;;;17.38;;
69754;SDS011;57023;52.218;5.158;2022-11-20T10:54:44;28.63;;;15.73;;
69754;SDS011;57023;52.218;5.158;2022-11-20T10:59:51;35.58;;;18.33;;
69754;SDS011;57023;52.218;5.158;2022-11-20T11:02:47;36.63;;;17.13;;
69754;SDS011;57023;52.218;5.158;2022-11-20T11:05:31;35.53;;;17.67;;
69754;SDS011;57023;52.218;5.158;2022-11-20T11:07:59;35.72;;;17.48;;
69754;SDS011;57023;52.218;5.158;2022-11-20T11:13:25;38.20;;;19.13;;
69754;SDS011;57023;52.218;5.158;2022-11-20T11:15:52;36.03;;;18.52;;
69754;SDS011;57023;52.218;5.158;2022-11-20T11:18:25;37.05;;;18.35;;
69754;SDS011;57023;52.218;5.158;2022-11-20T11:21:00;37.58;;;18.90;;
69754;SDS011;57023;52.218;5.158;2022-11-20T11:23:34;38.95;;;19.88;;
69754;SDS011;57023;52.218;5.158;2022-11-20T11:26:17;37.22;;;18.92;;
69754;SDS011;57023;52.218;5.158;2022-11-20T11:28:58;36.95;;;19.33;;
69754;SDS011;57023;52.218;5.158;2022-11-20T11:31:34;39.33;;;19.30;;
69754;SDS011;57023;52.218;5.158;2022-11-20T11:34:18;39.17;;;18.48;;
69754;SDS011;57023;52.218;5.158;2022-11-20T11:36:52;37.63;;;19.35;;
69754;SDS011;57023;52.218;5.158;2022-11-20T11:39:21;42.10;;;19.20;;
69754;SDS011;57023;52.218;5.158;2022-11-20T11:41:47;40.72;;;19.33;;
69754;SDS011;57023;52.218;5.158;2022-11-20T11:44:19;40.92;;;21.30;;
69754;SDS011;57023;52.218;5.158;2022-11-20T11:47:05;42.13;;;20.75;;
69754;SDS011;57023;52.218;5.158;2022-11-20T11:49:35;41.17;;;20.65;;
69754;SDS011;57023;52.218;5.158;2022-11-20T11:52:02;47.85;;;21.52;;
69754;SDS011;57023;52.218;5.158;2022-11-20T11:59:57;45.25;;;20.83;;
69754;SDS011;57023;52.218;5.158;2022-11-20T12:02:32;44.50;;;19.23;;
69754;SDS011;57023;52.218;5.158;2022-11-20T12:08:03;46.75;;;21.42;;
69754;SDS011;57023;52.218;5.158;2022-11-20T12:10:40;44.13;;;19.60;;
69754;SDS011;57023;52.218;5.158;2022-11-20T12:15:47;50.58;;;23.38;;
69754;SDS011;57023;52.218;5.158;2022-11-20T12:18:22;45.80;;;21.95;;
69754;SDS011;57023;52.218;5.158;2022-11-20T12:20:54;49.80;;;21.98;;
69754;SDS011;57023;52.218;5.158;2022-11-20T12:26:34;49.78;;;23.00;;
69754;SDS011;57023;52.218;5.158;2022-11-20T12:34:41;47.05;;;22.08;;
69754;SDS011;57023;52.218;5.158;2022-11-20T12:37:38;47.85;;;22.50;;
69754;SDS011;57023;52.218;5.158;2022-11-20T12:43:00;45.70;;;21.95;;
69754;SDS011;57023;52.218;5.158;2022-11-20T12:56:48;47.88;;;22.60;;
69754;SDS011;57023;52.218;5.158;2022-11-20T13:01:52;48.92;;;23.13;;
69754;SDS011;57023;52.218;5.158;2022-11-20T13:07:21;49.53;;;24.73;;
69754;SDS011;57023;52.218;5.158;2022-11-20T13:09:47;51.47;;;26.02;;
69754;SDS011;57023;52.218;5.158;2022-11-20T13:12:19;50.30;;;24.35;;
69754;SDS011;57023;52.218;5.158;2022-11-20T13:17:58;58.53;;;27.77;;
69754;SDS011;57023;52.218;5.158;2022-11-20T13:20:24;52.17;;;24.05;;
69754;SDS011;57023;52.218;5.158;2022-11-20T13:22:56;49.78;;;24.27;;
69754;SDS011;57023;52.218;5.158;2022-11-20T13:25:29;53.38;;;26.67;;
69754;SDS011;57023;52.218;5.158;2022-11-20T13:27:57;53.47;;;25.10;;
69754;SDS011;57023;52.218;5.158;2022-11-20T13:30:24;57.88;;;27.85;;
69754;SDS011;57023;52.218;5.158;2022-11-20T13:35:32;52.28;;;24.33;;
69754;SDS011;57023;52.218;5.158;2022-11-20T13:40:38;53.03;;;23.88;;
69754;SDS011;57023;52.218;5.158;2022-11-20T13:43:35;54.83;;;24.95;;
69754;SDS011;57023;52.218;5.158;2022-11-20T13:46:11;51.30;;;26.35;;
69754;SDS011;57023;52.218;5.158;2022-11-20T13:48:40;54.53;;;26.13;;
69754;SDS011;57023;52.218;5.158;2022-11-20T13:54:16;55.40;;;27.08;;
69754;SDS011;57023;52.218;5.158;2022-11-20T13:59:52;54.80;;;26.25;;
69754;SDS011;57023;52.218;5.158;2022-11-20T14:02:23;48.60;;;23.35;;
69754;SDS011;57023;52.218;5.158;2022-11-20T14:04:54;55.50;;;27.60;;
69754;SDS011;57023;52.218;5.158;2022-11-20T14:07:23;55.05;;;26.25;;
69754;SDS011;57023;52.218;5.158;2022-11-20T14:09:52;53.55;;;25.88;;
69754;SDS011;57023;52.218;5.158;2022-11-20T14:12:22;55.90;;;27.92;;
69754;SDS011;57023;52.218;5.158;2022-11-20T14:17:17;49.90;;;23.77;;
69754;SDS011;57023;52.218;5.158;2022-11-20T14:19:44;43.63;;;19.25;;
69754;SDS011;57023;52.218;5.158;2022-11-20T14:24:39;53.30;;;25.83;;
69754;SDS011;57023;52.218;5.158;2022-11-20T14:27:04;48.72;;;25.23;;
69754;SDS011;57023;52.218;5.158;2022-11-20T14:29:33;51.38;;;24.85;;
69754;SDS011;57023;52.218;5.158;2022-11-20T14:32:00;56.08;;;26.40;;
69754;SDS011;57023;52.218;5.158;2022-11-20T14:34:27;50.85;;;25.00;;
69754;SDS011;57023;52.218;5.158;2022-11-20T14:36:57;56.47;;;27.63;;
69754;SDS011;57023;52.218;5.158;2022-11-20T14:39:31;54.65;;;25.75;;
69754;SDS011;57023;52.218;5.158;2022-11-20T14:41:58;53.58;;;25.00;;
69754;SDS011;57023;52.218;5.158;2022-11-20T14:44:26;57.92;;;28.10;;
69754;SDS011;57023;52.218;5.158;2022-11-20T14:46:54;58.08;;;28.98;;
69754;SDS011;57023;52.218;5.158;2022-11-20T14:49:20;59.70;;;28.50;;
69754;SDS011;57023;52.218;5.158;2022-11-20T14:51:45;59.10;;;28.02;;
69754;SDS011;57023;52.218;5.158;2022-11-20T14:54:12;62.33;;;32.20;;
69754;SDS011;57023;52.218;5.158;2022-11-20T14:56:42;59.25;;;27.08;;
69754;SDS011;57023;52.218;5.158;2022-11-20T14:59:22;58.77;;;28.63;;
69754;SDS011;57023;52.218;5.158;2022-11-20T15:02:01;55.78;;;24.77;;
69754;SDS011;57023;52.218;5.158;2022-11-20T15:04:29;56.83;;;27.10;;
69754;SDS011;57023;52.218;5.158;2022-11-20T15:06:55;58.80;;;29.38;;
69754;SDS011;57023;52.218;5.158;2022-11-20T15:09:22;60.65;;;26.80;;
69754;SDS011;57023;52.218;5.158;2022-11-20T15:11:55;58.67;;;28.25;;
69754;SDS011;57023;52.218;5.158;2022-11-20T15:14:23;59.72;;;27.88;;
69754;SDS011;57023;52.218;5.158;2022-11-20T15:16:49;58.65;;;27.42;;
69754;SDS011;57023;52.218;5.158;2022-11-20T15:19:19;63.25;;;29.95;;
69754;SDS011;57023;52.218;5.158;2022-11-20T15:21:46;59.80;;;26.27;;
69754;SDS011;57023;52.218;5.158;2022-11-20T15:24:12;59.92;;;24.67;;
69754;SDS011;57023;52.218;5.158;2022-11-20T15:26:38;54.90;;;25.13;;
69754;SDS011;57023;52.218;5.158;2022-11-20T15:29:08;55.28;;;24.95;;
69754;SDS011;57023;52.218;5.158;2022-11-20T15:31:35;55.65;;;25.20;;
69754;SDS011;57023;52.218;5.158;2022-11-20T15:34:01;57.60;;;26.55;;
69754;SDS011;57023;52.218;5.158;2022-11-20T15:36:26;63.63;;;28.10;;
69754;SDS011;57023;52.218;5.158;2022-11-20T15:38:52;50.45;;;25.65;;
69754;SDS011;57023;52.218;5.158;2022-11-20T15:41:18;57.30;;;27.65;;
69754;SDS011;57023;52.218;5.158;2022-11-20T15:43:43;53.63;;;24.77;;
69754;SDS011;57023;52.218;5.158;2022-11-20T15:46:09;59.47;;;28.17;;
69754;SDS011;57023;52.218;5.158;2022-11-20T15:48:43;49.20;;;23.17;;
69754;SDS011;57023;52.218;5.158;2022-11-20T15:53:35;49.33;;;25.38;;
69754;SDS011;57023;52.218;5.158;2022-11-20T15:56:01;67.63;;;30.45;;
69754;SDS011;57023;52.218;5.158;2022-11-20T15:58:27;53.83;;;25.23;;
69754;SDS011;57023;52.218;5.158;2022-11-20T16:00:53;52.58;;;26.38;;
69754;SDS011;57023;52.218;5.158;2022-11-20T16:03:18;49.97;;;25.25;;
69754;SDS011;57023;52.218;5.158;2022-11-20T16:05:44;57.88;;;28.00;;
69754;SDS011;57023;52.218;5.158;2022-11-20T16:08:11;50.67;;;25.98;;
69754;SDS011;57023;52.218;5.158;2022-11-20T16:10:36;52.40;;;24.15;;
69754;SDS011;57023;52.218;5.158;2022-11-20T16:13:02;47.95;;;22.70;;
69754;SDS011;57023;52.218;5.158;2022-11-20T16:15:50;35.45;;;16.88;;